Star Princess — ZCDD6 — position and weather

sailwx.info

Track history (hours):
 
Tides and Currents Weather Stations Pressure Air Temp Water Temp Dewpoint Dewpoint Depression Visibility Wind Speed Wind Dir Waves Ship Positions

Star Princess

Operator: Princess Cruises

Last reported at 2014-Nov-23 08:31 UTC. Time now 2014-Nov-23 11:51 UTC.
Position N 31°12' W 118°32'.

Length 289.6 m; beam 36 m; draft 8.4 m.

Type: Ship. MMSI: 310361000.

Date/timePositionNaut miles runAvg speedWind from/ knotsBaromVisibWave heightAir tempDewpointWater temp
2014-Nov-23 08:31N 31°12' W 118°32'58218.5
2014-Nov-22 01:00N 23°30' W 111°54'   210 / 131013.210.8 23.516.227.0
2014-Nov-15 12:33N 35°09' W 121°52'2020.1
2014-Nov-15 11:33N 35°26' W 122°05'2019.9
2014-Nov-15 10:33N 35°44' W 122°16'2020.1
2014-Nov-15 09:33N 36°01' W 122°29'2020.0
2014-Nov-15 08:33N 36°19' W 122°41'1918.6
2014-Nov-15 07:33N 36°36' W 122°48'1616.2
2014-Nov-15 06:33N 36°52' W 122°49'1816.8
2014-Nov-15 05:30N 37°10' W 122°45'1515.7
2014-Nov-15 04:33N 37°25' W 122°43'1515.1
2014-Nov-15 03:34N 37°40' W 122°43'1313.3
2014-Nov-15 02:33N 37°49' W 122°30'5 5.0
2014-Nov-15 01:33N 37°48' W 122°24'0 0.0
2014-Nov-15 00:33N 37°48' W 122°24'0 0.0
2014-Nov-14 23:32N 37°48' W 122°24'0 0.0
2014-Nov-14 22:32N 37°48' W 122°24'0 0.0
2014-Nov-14 21:29N 37°48' W 122°24'0 0.0
2014-Nov-14 20:31N 37°48' W 122°24'0 0.0
2014-Nov-14 19:31N 37°48' W 122°24'0 0.0
2014-Nov-14 18:33N 37°48' W 122°24'0 0.0
2014-Nov-14 17:33N 37°48' W 122°24'0 0.0
2014-Nov-14 16:32N 37°48' W 122°24'0 0.0
2014-Nov-14 15:32N 37°48' W 122°24'0 0.0
2014-Nov-14 14:34N 37°48' W 122°24'14 7.0
2014-Nov-14 12:33N 37°45' W 122°41'1211.8
2014-Nov-14 11:33N 37°33' W 122°40'3711.4
2014-Nov-14 08:19N 36°57' W 122°53'31016.9
2014-Nov-13 14:00N 32°30' W 119°42'8016.6 210 / 131018.6 5.4 16.214.320.0
2014-Nov-13 09:11N 31°27' W 118°45'1217.8
2014-Nov-13 08:32N 31°17' W 118°37'  
Track history (hours):
 
Tides and Currents Weather Stations Pressure Air Temp Water Temp Dewpoint Dewpoint Depression Visibility Wind Speed Wind Dir Waves Ship Positions

Star Princess

Operator: Princess Cruises

Last reported at 2014-Nov-23 08:31 UTC. Time now 2014-Nov-23 11:51 UTC.
Position N 31°12' W 118°32'.

Length 289.6 m; beam 36 m; draft 8.4 m.

Type: Ship. MMSI: 310361000.

Date/timePositionNaut miles runAvg speedWind from/ knotsBaromVisibWave heightAir tempDewpointWater temp
2014-Nov-23 08:31N 31°12' W 118°32'58218.5
2014-Nov-22 01:00N 23°30' W 111°54'   210 / 131013.210.8 23.516.227.0
2014-Nov-15 12:33N 35°09' W 121°52'2020.1
2014-Nov-15 11:33N 35°26' W 122°05'2019.9
2014-Nov-15 10:33N 35°44' W 122°16'2020.1
2014-Nov-15 09:33N 36°01' W 122°29'2020.0
2014-Nov-15 08:33N 36°19' W 122°41'1918.6
2014-Nov-15 07:33N 36°36' W 122°48'1616.2
2014-Nov-15 06:33N 36°52' W 122°49'1816.8
2014-Nov-15 05:30N 37°10' W 122°45'1515.7
2014-Nov-15 04:33N 37°25' W 122°43'1515.1
2014-Nov-15 03:34N 37°40' W 122°43'1313.3
2014-Nov-15 02:33N 37°49' W 122°30'5 5.0
2014-Nov-15 01:33N 37°48' W 122°24'0 0.0
2014-Nov-15 00:33N 37°48' W 122°24'0 0.0
2014-Nov-14 23:32N 37°48' W 122°24'0 0.0
2014-Nov-14 22:32N 37°48' W 122°24'0 0.0
2014-Nov-14 21:29N 37°48' W 122°24'0 0.0
2014-Nov-14 20:31N 37°48' W 122°24'0 0.0
2014-Nov-14 19:31N 37°48' W 122°24'0 0.0
2014-Nov-14 18:33N 37°48' W 122°24'0 0.0
2014-Nov-14 17:33N 37°48' W 122°24'0 0.0
2014-Nov-14 16:32N 37°48' W 122°24'0 0.0
2014-Nov-14 15:32N 37°48' W 122°24'0 0.0
2014-Nov-14 14:34N 37°48' W 122°24'14 7.0
2014-Nov-14 12:33N 37°45' W 122°41'1211.8
2014-Nov-14 11:33N 37°33' W 122°40'3711.4
2014-Nov-14 08:19N 36°57' W 122°53'31016.9
2014-Nov-13 14:00N 32°30' W 119°42'8016.6 210 / 131018.6 5.4 16.214.320.0
2014-Nov-13 09:11N 31°27' W 118°45'1217.8
2014-Nov-13 08:32N 31°17' W 118°37'  

Dump ship's entire track history